Time;durP1;ratioP1;P1;durP2;ratioP2;P2;SDS_P1;SDS_P2;PMS_P1;PMS_P2;Temp;Humidity;BMP_temperature;BMP_pressure;BME280_temperature;BME280_humidity;BME280_pressure;Samples;Min_cycle;Max_cycle;Signal;HPM_P1;HPM_P2
2023/09/15 00:00:25;;;;;;;10.43;4.60;;;16.30;99.90;;;;;;7304192;19;21369;-84
2023/09/15 00:02:58;;;;;;;9.00;4.37;;;16.20;99.90;;;;;;7287664;19;20200;-83
2023/09/15 00:05:29;;;;;;;9.43;4.50;;;16.20;99.90;;;;;;7301353;19;21429;-80
2023/09/15 00:08:03;;;;;;;10.03;4.40;;;16.20;99.90;;;;;;7301425;19;20185;-80
2023/09/15 00:10:34;;;;;;;9.90;4.60;;;16.20;99.90;;;;;;7284837;19;20269;-85
2023/09/15 00:13:01;;;;;;;11.00;4.60;;;16.10;99.90;;;;;;7299898;19;20219;-80
2023/09/15 00:15:28;;;;;;;9.50;4.70;;;16.10;99.90;;;;;;7325428;19;20619;-80
2023/09/15 00:17:55;;;;;;;8.43;4.27;;;16.10;99.90;;;;;;7288727;19;20193;-83
2023/09/15 00:20:28;;;;;;;9.03;4.30;;;16.10;99.90;;;;;;7298414;19;20192;-81
2023/09/15 00:22:55;;;;;;;11.03;4.67;;;16.10;99.90;;;;;;7298663;19;20180;-81
2023/09/15 00:25:27;;;;;;;9.27;4.50;;;16.10;99.90;;;;;;7297675;19;20891;-85
2023/09/15 00:27:59;;;;;;;9.43;4.50;;;16.10;99.90;;;;;;7300499;19;20178;-85
2023/09/15 00:30:26;;;;;;;11.33;5.07;;;16.10;99.90;;;;;;7299451;19;20718;-81
2023/09/15 00:32:53;;;;;;;10.60;5.27;;;16.20;99.90;;;;;;7294437;19;20284;-81
2023/09/15 00:35:27;;;;;;;11.10;4.80;;;16.10;99.90;;;;;;7290265;19;20207;-84
2023/09/15 00:38:03;;;;;;;8.63;4.27;;;16.20;99.90;;;;;;7299700;19;20193;-85
2023/09/15 00:40:30;;;;;;;11.60;4.90;;;16.00;99.90;;;;;;7300110;19;20188;-84
2023/09/15 00:42:56;;;;;;;10.53;4.83;;;15.90;99.90;;;;;;7324537;19;20211;-80
2023/09/15 00:45:25;;;;;;;9.20;4.80;;;15.90;99.90;;;;;;7303030;19;20189;-85
2023/09/15 00:47:55;;;;;;;9.80;4.97;;;16.00;99.90;;;;;;7300044;19;20575;-85
2023/09/15 00:50:31;;;;;;;10.23;5.50;;;15.90;99.90;;;;;;7299395;19;20230;-79
2023/09/15 00:53:09;;;;;;;9.90;5.00;;;15.90;99.90;;;;;;7301444;19;20191;-80
2023/09/15 00:55:38;;;;;;;12.03;5.40;;;15.80;99.90;;;;;;7299832;19;20197;-85
2023/09/15 00:58:11;;;;;;;12.10;5.00;;;15.80;99.90;;;;;;7300798;19;20211;-84
2023/09/15 01:00:44;;;;;;;11.20;5.20;;;15.80;99.90;;;;;;7299681;19;20197;-80
2023/09/15 01:03:19;;;;;;;10.53;5.07;;;15.90;99.90;;;;;;7246487;19;20197;-83
2023/09/15 01:05:48;;;;;;;9.73;4.93;;;15.90;99.90;;;;;;7296230;19;20208;-84
2023/09/15 01:08:20;;;;;;;12.57;5.37;;;15.80;99.90;;;;;;7300165;19;20193;-80
2023/09/15 01:10:50;;;;;;;11.30;5.00;;;15.80;99.90;;;;;;7297028;19;20208;-85
2023/09/15 01:13:17;;;;;;;11.90;5.50;;;15.80;99.90;;;;;;7296370;19;20210;-85
2023/09/15 01:15:56;;;;;;;11.07;5.37;;;15.80;99.90;;;;;;7297975;19;20197;-80
2023/09/15 01:19:03;;;;;;;10.10;5.40;;;15.80;99.90;;;;;;7295709;19;20629;-85
2023/09/15 01:22:05;;;;;;;11.60;5.90;;;15.90;99.90;;;;;;7180779;19;2004553;-85
2023/09/15 01:24:43;;;;;;;11.70;5.70;;;15.90;99.90;;;;;;7261161;19;20197;-85
2023/09/15 01:27:46;;;;;;;14.63;6.17;;;16.00;99.90;;;;;;7276348;19;20180;-83
2023/09/15 01:30:13;;;;;;;11.90;5.90;;;16.00;99.90;;;;;;7169864;19;2005088;-86
2023/09/15 01:32:44;;;;;;;12.03;5.53;;;16.00;99.90;;;;;;7307148;19;20199;-84
2023/09/15 01:35:12;;;;;;;11.70;5.77;;;15.90;99.90;;;;;;7303015;19;20188;-85
2023/09/15 01:37:41;;;;;;;14.77;5.93;;;15.80;99.90;;;;;;7304618;19;20191;-80
2023/09/15 01:40:13;;;;;;;10.87;5.87;;;15.80;99.90;;;;;;7303196;19;20260;-86
2023/09/15 01:42:50;;;;;;;12.90;6.03;;;15.80;99.90;;;;;;7304361;19;20229;-80
2023/09/15 01:45:18;;;;;;;11.37;6.30;;;15.70;99.90;;;;;;7305699;19;20188;-85
2023/09/15 01:47:45;;;;;;;11.93;6.20;;;15.70;99.90;;;;;;7306183;19;20201;-80
2023/09/15 01:50:14;;;;;;;12.33;6.40;;;15.60;99.90;;;;;;7304275;19;20193;-86
2023/09/15 01:52:43;;;;;;;13.33;6.77;;;15.60;99.90;;;;;;7304023;19;20196;-80
2023/09/15 01:55:13;;;;;;;11.90;5.97;;;15.50;99.90;;;;;;7306064;19;21102;-80
2023/09/15 01:57:46;;;;;;;13.67;6.20;;;15.40;99.90;;;;;;7302953;19;20193;-84
2023/09/15 02:00:18;;;;;;;11.23;5.60;;;15.30;99.90;;;;;;7303062;19;20199;-85
2023/09/15 02:02:46;;;;;;;11.20;5.70;;;15.30;99.90;;;;;;7300073;19;20197;-82
2023/09/15 02:05:35;;;;;;;12.17;6.43;;;15.30;99.90;;;;;;7306603;19;20200;-85
2023/09/15 02:08:02;;;;;;;10.50;6.43;;;15.40;99.90;;;;;;7306838;19;20209;-81
2023/09/15 02:10:36;;;;;;;13.83;6.33;;;15.40;99.90;;;;;;7291265;19;20188;-83
2023/09/15 02:13:05;;;;;;;13.00;6.43;;;15.30;99.90;;;;;;7302402;19;20191;-81
2023/09/15 02:15:31;;;;;;;13.07;6.63;;;15.20;99.90;;;;;;7302481;19;20231;-83
2023/09/15 02:18:00;;;;;;;12.13;6.40;;;15.30;99.90;;;;;;7335332;19;20185;-85
2023/09/15 02:20:29;;;;;;;12.07;6.97;;;15.30;99.90;;;;;;7313110;19;20195;-85
2023/09/15 02:23:03;;;;;;;12.83;6.33;;;15.20;99.90;;;;;;7298115;19;20185;-80
2023/09/15 02:25:31;;;;;;;12.27;7.00;;;15.30;99.90;;;;;;7310371;19;20195;-85
2023/09/15 02:28:09;;;;;;;15.10;7.30;;;15.30;99.90;;;;;;7308292;19;20286;-82
2023/09/15 02:30:37;;;;;;;14.43;6.87;;;15.20;99.90;;;;;;7278700;19;20206;-79
2023/09/15 02:33:07;;;;;;;13.47;7.23;;;15.30;99.90;;;;;;7298515;19;20661;-85
2023/09/15 02:35:35;;;;;;;14.63;7.27;;;15.40;99.90;;;;;;7305356;19;20195;-80
2023/09/15 02:38:04;;;;;;;14.53;7.03;;;15.40;99.90;;;;;;7313600;19;20200;-85
2023/09/15 02:40:30;;;;;;;12.20;6.80;;;15.30;99.90;;;;;;7320214;19;20184;-80
2023/09/15 02:42:56;;;;;;;13.40;6.87;;;15.30;99.90;;;;;;7304005;19;20196;-80
2023/09/15 02:45:35;;;;;;;11.60;6.60;;;15.20;99.90;;;;;;7286665;19;20199;-80
2023/09/15 02:48:03;;;;;;;14.57;6.37;;;15.10;99.90;;;;;;7276024;19;20192;-85
2023/09/15 02:50:30;;;;;;;12.17;7.07;;;15.10;99.90;;;;;;7320800;19;20195;-80
2023/09/15 02:52:57;;;;;;;12.93;6.80;;;15.10;99.90;;;;;;7296554;19;20199;-79
2023/09/15 02:55:23;;;;;;;11.30;6.63;;;15.10;99.90;;;;;;7301695;19;20251;-84
2023/09/15 02:57:54;;;;;;;16.27;7.30;;;15.00;99.90;;;;;;7301664;19;20179;-85
2023/09/15 03:00:21;;;;;;;13.57;6.87;;;15.00;99.90;;;;;;7301563;19;20209;-83
2023/09/15 03:02:48;;;;;;;13.07;7.03;;;15.00;99.90;;;;;;7302261;19;20177;-85
2023/09/15 03:05:15;;;;;;;17.37;7.60;;;15.00;99.90;;;;;;7285943;19;20186;-79
2023/09/15 03:07:42;;;;;;;13.43;8.03;;;14.90;99.90;;;;;;7301353;19;20204;-80
2023/09/15 03:10:11;;;;;;;12.37;7.30;;;14.90;99.90;;;;;;7297772;19;20180;-85
2023/09/15 03:12:37;;;;;;;13.97;7.70;;;14.90;99.90;;;;;;7302349;19;20186;-80
2023/09/15 03:15:08;;;;;;;13.37;7.00;;;14.90;99.90;;;;;;7288176;19;20200;-85
2023/09/15 03:17:37;;;;;;;13.07;7.17;;;14.90;99.90;;;;;;7298147;19;20191;-80
2023/09/15 03:20:19;;;;;;;14.13;6.90;;;14.90;99.90;;;;;;7300079;19;20224;-86
2023/09/15 03:22:50;;;;;;;13.53;7.43;;;14.90;99.90;;;;;;7293019;19;20229;-80
2023/09/15 03:25:17;;;;;;;12.40;6.50;;;14.90;99.90;;;;;;7292647;19;20192;-85
2023/09/15 03:27:44;;;;;;;11.30;6.13;;;14.90;99.90;;;;;;7297913;19;20183;-80
2023/09/15 03:30:11;;;;;;;12.43;6.00;;;14.80;99.90;;;;;;7290277;19;20197;-80
2023/09/15 03:32:40;;;;;;;10.80;5.40;;;14.60;99.90;;;;;;7291427;19;20234;-80
2023/09/15 03:35:09;;;;;;;9.30;5.53;;;14.40;99.90;;;;;;7270072;19;20239;-78
2023/09/15 03:37:42;;;;;;;12.90;6.37;;;14.30;99.90;;;;;;7297706;19;20270;-85
2023/09/15 03:40:14;;;;;;;13.30;7.07;;;14.40;99.90;;;;;;7298735;19;20191;-81
2023/09/15 03:42:42;;;;;;;14.27;7.33;;;14.40;99.90;;;;;;7296497;19;20202;-85
2023/09/15 03:45:11;;;;;;;14.20;8.00;;;14.50;99.90;;;;;;7297364;19;20196;-80
2023/09/15 03:47:43;;;;;;;16.00;7.03;;;14.60;99.90;;;;;;7274372;19;20193;-85
2023/09/15 03:50:11;;;;;;;14.97;7.23;;;14.60;99.90;;;;;;7291653;19;20215;-81
2023/09/15 03:52:39;;;;;;;13.50;6.93;;;14.60;99.90;;;;;;7286510;19;20215;-84
2023/09/15 03:55:07;;;;;;;14.70;7.50;;;14.70;99.90;;;;;;7309316;19;20213;-85
2023/09/15 03:57:33;;;;;;;14.63;7.07;;;14.60;99.90;;;;;;7303158;19;20203;-85
2023/09/15 04:00:03;;;;;;;12.37;6.77;;;14.60;99.90;;;;;;7314304;19;20195;-80
2023/09/15 04:02:38;;;;;;;15.77;7.47;;;14.60;99.90;;;;;;7288989;19;20198;-80
2023/09/15 04:05:13;;;;;;;14.70;7.20;;;14.60;99.90;;;;;;7292676;19;20218;-85
2023/09/15 04:07:45;;;;;;;14.17;7.20;;;14.70;99.90;;;;;;7298718;19;20194;-80
2023/09/15 04:10:12;;;;;;;13.80;7.07;;;14.70;99.90;;;;;;7297507;19;20209;-80
2023/09/15 04:12:42;;;;;;;13.10;7.37;;;14.70;99.90;;;;;;7296655;19;20201;-85
2023/09/15 04:15:11;;;;;;;17.47;7.83;;;14.60;99.90;;;;;;7297696;19;20209;-80
2023/09/15 04:17:38;;;;;;;14.27;7.37;;;14.40;99.90;;;;;;7294721;19;20259;-79
2023/09/15 04:20:10;;;;;;;16.60;7.47;;;14.40;99.90;;;;;;7295067;19;20184;-80
2023/09/15 04:22:40;;;;;;;12.83;6.73;;;14.50;99.90;;;;;;7284532;19;20289;-85
2023/09/15 04:25:14;;;;;;;11.17;5.73;;;14.40;99.90;;;;;;7297319;19;20231;-85
2023/09/15 04:27:42;;;;;;;12.20;6.17;;;14.40;99.90;;;;;;7296756;19;20679;-79
2023/09/15 04:30:15;;;;;;;13.03;6.40;;;14.20;99.90;;;;;;7293035;19;20245;-80
2023/09/15 04:32:50;;;;;;;12.33;6.40;;;14.30;99.90;;;;;;7274535;19;20192;-85
2023/09/15 04:35:27;;;;;;;11.37;6.60;;;14.30;99.90;;;;;;7297278;19;20230;-84
2023/09/15 04:37:58;;;;;;;13.53;7.13;;;14.30;99.90;;;;;;7297504;19;20210;-85
2023/09/15 04:40:27;;;;;;;12.83;8.23;;;14.30;99.90;;;;;;7296385;19;20187;-80
2023/09/15 04:42:55;;;;;;;14.90;8.97;;;14.40;99.90;;;;;;7297503;19;20737;-81
2023/09/15 04:45:27;;;;;;;16.43;7.97;;;14.40;99.90;;;;;;7293172;19;20700;-85
2023/09/15 04:47:56;;;;;;;14.07;7.67;;;14.40;99.90;;;;;;7292818;19;20188;-85
2023/09/15 04:50:26;;;;;;;15.00;7.50;;;14.50;99.90;;;;;;7282103;19;20216;-86
2023/09/15 04:52:52;;;;;;;13.67;7.00;;;14.50;99.90;;;;;;7283625;19;20308;-85
2023/09/15 04:55:19;;;;;;;14.17;7.27;;;14.40;99.90;;;;;;7291982;19;20202;-86
2023/09/15 04:57:46;;;;;;;13.30;7.60;;;14.40;99.90;;;;;;7294554;19;20177;-85
2023/09/15 05:00:21;;;;;;;13.30;7.00;;;14.50;99.90;;;;;;7289331;19;20191;-85
2023/09/15 05:02:51;;;;;;;12.47;7.07;;;14.40;99.90;;;;;;7289217;19;20205;-85
2023/09/15 05:05:17;;;;;;;13.37;7.70;;;14.40;99.90;;;;;;7287230;19;20192;-85
2023/09/15 05:07:44;;;;;;;14.00;8.03;;;14.40;99.90;;;;;;7287584;19;20205;-84
2023/09/15 05:10:11;;;;;;;13.60;7.67;;;14.40;99.90;;;;;;7285507;19;20197;-84
2023/09/15 05:12:39;;;;;;;15.10;8.30;;;14.50;99.90;;;;;;7286179;19;20197;-82
2023/09/15 05:15:07;;;;;;;12.50;7.10;;;14.60;99.90;;;;;;7284706;19;20203;-80
2023/09/15 05:17:36;;;;;;;13.97;7.93;;;14.60;99.90;;;;;;7288032;19;20603;-84
2023/09/15 05:20:02;;;;;;;14.83;8.20;;;14.50;99.90;;;;;;7294727;19;20214;-83
2023/09/15 05:22:29;;;;;;;11.87;7.53;;;14.60;99.90;;;;;;7312785;19;20202;-83
2023/09/15 05:24:57;;;;;;;15.27;7.37;;;14.70;99.90;;;;;;7291005;19;20283;-83
2023/09/15 05:27:23;;;;;;;11.40;6.60;;;14.60;99.90;;;;;;7287579;19;20194;-83
2023/09/15 05:29:50;;;;;;;17.30;7.00;;;14.60;99.90;;;;;;7290184;19;20549;-83
2023/09/15 05:32:16;;;;;;;14.87;7.47;;;14.60;99.90;;;;;;7289215;19;20578;-83
2023/09/15 05:34:42;;;;;;;14.33;7.10;;;14.70;99.90;;;;;;7290183;19;20196;-83
2023/09/15 05:37:08;;;;;;;13.83;7.23;;;14.70;99.90;;;;;;7288900;19;20192;-79
2023/09/15 05:39:34;;;;;;;18.23;7.20;;;14.70;99.90;;;;;;7295590;19;20940;-80
2023/09/15 05:42:01;;;;;;;12.37;7.43;;;14.70;99.90;;;;;;7300154;19;20540;-79
2023/09/15 05:44:26;;;;;;;15.03;6.57;;;14.90;99.90;;;;;;7300978;19;20277;-79
2023/09/15 05:46:53;;;;;;;11.87;6.93;;;15.10;99.90;;;;;;7281983;19;20180;-79
2023/09/15 05:49:22;;;;;;;11.77;6.10;;;15.50;99.90;;;;;;7289104;19;20189;-81
2023/09/15 05:51:49;;;;;;;15.13;6.10;;;16.20;99.90;;;;;;7299269;19;20562;-81
2023/09/15 05:54:17;;;;;;;13.87;5.87;;;16.60;99.90;;;;;;7300730;19;20217;-82
2023/09/15 05:56:43;;;;;;;12.43;5.50;;;16.90;99.90;;;;;;7298759;19;20188;-80
2023/09/15 05:59:09;;;;;;;14.40;5.77;;;17.00;99.90;;;;;;7298180;19;20225;-81
2023/09/15 06:01:35;;;;;;;11.27;5.20;;;17.40;99.90;;;;;;7302462;19;20188;-81
2023/09/15 06:04:01;;;;;;;11.70;5.10;;;17.40;99.90;;;;;;7292990;19;20190;-80
2023/09/15 06:06:36;;;;;;;15.27;5.87;;;17.20;99.90;;;;;;7301295;19;20620;-81
2023/09/15 06:09:02;;;;;;;15.27;5.77;;;17.10;99.90;;;;;;7308614;19;21296;-81
2023/09/15 06:11:28;;;;;;;13.33;5.70;;;17.00;99.90;;;;;;7309113;19;20620;-81
2023/09/15 06:13:57;;;;;;;13.60;6.60;;;16.80;99.90;;;;;;7300827;19;20217;-80
2023/09/15 06:16:26;;;;;;;14.03;6.50;;;16.70;99.90;;;;;;7299345;19;20226;-81
2023/09/15 06:18:53;;;;;;;15.57;6.97;;;16.60;99.90;;;;;;7292736;19;20504;-82
2023/09/15 06:21:20;;;;;;;18.73;6.37;;;16.50;99.90;;;;;;7297042;19;20195;-82
2023/09/15 06:23:46;;;;;;;15.23;6.37;;;16.50;99.90;;;;;;7298103;19;20786;-81
2023/09/15 06:26:12;;;;;;;18.07;7.07;;;16.50;99.90;;;;;;7299138;19;20188;-81
2023/09/15 06:28:39;;;;;;;15.20;6.43;;;16.30;99.90;;;;;;7299008;19;20209;-81
2023/09/15 06:31:05;;;;;;;15.90;6.63;;;16.40;99.90;;;;;;7298951;19;20192;-80
2023/09/15 06:33:31;;;;;;;17.00;6.90;;;16.40;99.90;;;;;;7318782;19;20217;-81
2023/09/15 06:35:57;;;;;;;16.40;6.30;;;16.50;99.90;;;;;;7312804;19;20192;-80
2023/09/15 06:38:23;;;;;;;17.17;6.60;;;16.60;99.90;;;;;;7295080;19;20258;-82
2023/09/15 06:40:52;;;;;;;12.93;6.03;;;17.20;99.90;;;;;;7288478;19;20196;-81
2023/09/15 06:43:19;;;;;;;10.87;5.17;;;19.00;99.90;;;;;;7279697;19;20189;-81
2023/09/15 06:45:45;;;;;;;11.67;4.93;;;20.50;99.90;;;;;;7299986;19;20548;-80
2023/09/15 06:48:11;;;;;;;12.60;4.77;;;21.60;99.90;;;;;;7299437;19;20280;-80
2023/09/15 06:50:41;;;;;;;9.87;4.60;;;22.80;99.90;;;;;;7293098;19;20196;-81
2023/09/15 06:53:07;;;;;;;11.13;4.30;;;24.00;99.90;;;;;;7298342;19;20231;-81
2023/09/15 06:55:34;;;;;;;13.03;4.90;;;24.60;99.90;;;;;;7298456;19;20192;-81
2023/09/15 06:58:01;;;;;;;11.70;4.63;;;24.70;99.90;;;;;;7321013;19;20193;-82
2023/09/15 07:00:29;;;;;;;15.40;4.15;;;26.00;99.90;;;;;;7298533;19;20195;-82
2023/09/15 07:02:57;;;;;;;12.38;4.18;;;26.70;99.90;;;;;;7295600;19;20188;-82
2023/09/15 07:05:26;;;;;;;9.15;3.92;;;27.10;99.90;;;;;;7295690;19;20477;-82
2023/09/15 07:07:54;;;;;;;9.90;3.70;;;28.10;99.90;;;;;;7290653;19;20203;-81
2023/09/15 07:10:20;;;;;;;10.57;3.95;;;29.40;99.90;;;;;;7295101;19;20645;-81
2023/09/15 07:12:47;;;;;;;9.38;3.47;;;30.00;99.90;;;;;;7292464;19;20204;-82
2023/09/15 07:15:13;;;;;;;9.15;3.63;;;30.30;99.90;;;;;;7295933;19;20558;-80
2023/09/15 07:17:39;;;;;;;9.38;2.88;;;30.50;99.90;;;;;;7293774;19;20189;-81
2023/09/15 07:20:09;;;;;;;9.50;3.33;;;31.00;99.90;;;;;;7297843;19;20185;-81
2023/09/15 07:22:36;;;;;;;8.32;3.30;;;31.00;97.00;;;;;;7297432;19;20192;-81
2023/09/15 07:25:05;;;;;;;9.80;3.40;;;30.60;98.00;;;;;;7318660;19;20196;-82
2023/09/15 07:27:34;;;;;;;9.30;3.50;;;31.80;96.20;;;;;;7293234;19;20189;-82
2023/09/15 07:30:00;;;;;;;8.65;3.55;;;32.60;94.10;;;;;;7321326;19;20180;-82
2023/09/15 07:32:28;;;;;;;10.52;3.17;;;33.40;91.90;;;;;;7301501;19;20200;-82
2023/09/15 07:34:54;;;;;;;8.63;3.53;;;34.20;90.50;;;;;;7302914;19;20660;-81
2023/09/15 07:37:22;;;;;;;8.18;3.15;;;34.40;87.10;;;;;;7301590;19;20189;-81
2023/09/15 07:39:50;;;;;;;8.98;3.53;;;35.00;84.60;;;;;;7304884;19;20659;-83
2023/09/15 07:42:16;;;;;;;9.88;3.50;;;35.00;79.90;;;;;;7274297;19;20195;-81
2023/09/15 07:44:45;;;;;;;10.45;4.03;;;34.30;80.80;;;;;;7300927;19;20229;-81
2023/09/15 07:47:12;;;;;;;12.60;4.88;;;34.10;79.10;;;;;;7293862;19;20198;-81
2023/09/15 07:49:38;;;;;;;9.80;3.50;;;33.60;80.90;;;;;;7295870;19;20188;-81
2023/09/15 07:52:06;;;;;;;11.70;3.95;;;34.00;79.80;;;;;;7295686;19;20188;-83
2023/09/15 07:54:31;;;;;;;10.05;4.07;;;34.20;77.60;;;;;;7313508;19;20206;-81
2023/09/15 07:57:00;;;;;;;12.57;3.75;;;34.40;77.40;;;;;;7166770;19;21441;-82
2023/09/15 07:59:28;;;;;;;11.68;3.78;;;35.00;76.50;;;;;;7294079;19;20245;-83
2023/09/15 08:01:56;;;;;;;12.63;3.83;;;34.60;75.90;;;;;;7293999;19;20258;-82
2023/09/15 08:04:22;;;;;;;10.52;3.83;;;34.60;76.30;;;;;;7298776;19;20198;-83
2023/09/15 08:06:49;;;;;;;9.88;3.75;;;34.40;75.90;;;;;;7297145;19;20226;-81
2023/09/15 08:09:17;;;;;;;9.50;3.67;;;34.50;75.00;;;;;;7296263;19;20181;-83
2023/09/15 08:11:45;;;;;;;10.23;4.30;;;34.50;75.30;;;;;;7297487;19;20188;-83
2023/09/15 08:14:12;;;;;;;9.43;3.58;;;34.30;75.10;;;;;;7321234;19;20568;-82
2023/09/15 08:16:46;;;;;;;10.23;3.80;;;34.90;75.10;;;;;;7292060;19;20189;-83
2023/09/15 08:19:13;;;;;;;12.68;3.90;;;34.60;73.60;;;;;;7294036;19;20766;-83
2023/09/15 08:21:40;;;;;;;8.73;3.55;;;34.60;74.50;;;;;;7294944;19;20192;-82
2023/09/15 08:24:06;;;;;;;9.82;3.85;;;34.80;73.50;;;;;;7288359;19;20617;-82
2023/09/15 08:26:32;;;;;;;11.82;3.85;;;35.30;73.30;;;;;;7306919;19;20200;-82
2023/09/15 08:29:00;;;;;;;12.77;3.83;;;35.30;71.50;;;;;;7318775;19;20571;-82
2023/09/15 08:31:28;;;;;;;12.07;3.92;;;35.50;72.80;;;;;;7294669;19;20217;-83
2023/09/15 08:33:55;;;;;;;9.30;3.65;;;35.90;72.10;;;;;;7293036;19;20185;-82
2023/09/15 08:36:26;;;;;;;9.85;3.65;;;35.80;71.40;;;;;;7295697;19;20990;-81
2023/09/15 08:38:53;;;;;;;13.93;3.60;;;36.70;69.90;;;;;;7297042;19;20256;-81
2023/09/15 08:41:42;;;;;;;9.75;3.25;;;37.50;67.90;;;;;;7295569;19;20197;-81
2023/09/15 08:44:09;;;;;;;10.88;2.92;;;38.40;66.00;;;;;;7190136;19;2004919;-81
2023/09/15 08:46:42;;;;;;;11.18;3.38;;;38.90;64.50;;;;;;7295923;19;20191;-84
2023/09/15 08:49:09;;;;;;;9.63;3.35;;;39.50;63.10;;;;;;7296335;19;20599;-82
2023/09/15 08:51:40;;;;;;;6.68;3.13;;;40.00;62.70;;;;;;7297137;19;20185;-83
2023/09/15 08:54:08;;;;;;;7.57;2.70;;;40.20;60.20;;;;;;7295674;19;20181;-83
2023/09/15 08:56:43;;;;;;;8.18;2.78;;;40.30;60.30;;;;;;7299461;19;20185;-82
2023/09/15 08:59:10;;;;;;;11.27;2.92;;;40.30;59.60;;;;;;7297999;19;20201;-84
2023/09/15 09:01:39;;;;;;;11.38;2.90;;;40.40;58.90;;;;;;7288911;19;20184;-81
2023/09/15 09:04:26;;;;;;;7.57;2.80;;;40.20;58.00;;;;;;7298479;19;20223;-85
2023/09/15 09:06:53;;;;;;;9.05;2.85;;;40.40;58.60;;;;;;7295053;19;20212;-81
2023/09/15 09:09:20;;;;;;;7.50;2.70;;;40.80;57.60;;;;;;7297443;19;20549;-84
2023/09/15 09:11:47;;;;;;;9.10;2.40;;;40.20;57.50;;;;;;7297702;19;20203;-82
2023/09/15 09:14:19;;;;;;;8.93;2.60;;;39.20;57.20;;;;;;7297399;19;20193;-81
2023/09/15 09:16:47;;;;;;;4.97;2.25;;;37.20;60.20;;;;;;7296122;19;20199;-82
2023/09/15 09:19:13;;;;;;;6.55;2.40;;;35.10;63.80;;;;;;7291795;19;20195;-83
2023/09/15 09:21:40;;;;;;;8.52;2.60;;;33.40;66.10;;;;;;7288230;19;20518;-81
2023/09/15 09:24:07;;;;;;;7.78;2.70;;;32.00;69.40;;;;;;7295392;19;20217;-82
2023/09/15 09:26:33;;;;;;;6.68;2.88;;;30.90;72.20;;;;;;7274127;19;20189;-83
2023/09/15 09:29:01;;;;;;;4.57;2.30;;;30.20;75.00;;;;;;7315327;19;20289;-83
2023/09/15 09:31:28;;;;;;;6.50;2.30;;;29.50;74.60;;;;;;7285147;19;20217;-83
2023/09/15 09:33:57;;;;;;;6.13;1.77;;;28.90;77.10;;;;;;7273434;19;20228;-81
2023/09/15 09:36:23;;;;;;;4.63;2.08;;;28.20;75.60;;;;;;7292816;19;20211;-80
2023/09/15 09:38:50;;;;;;;5.70;1.90;;;27.60;78.80;;;;;;7280248;19;20189;-82
2023/09/15 09:41:21;;;;;;;4.53;2.05;;;26.90;80.80;;;;;;7296223;19;20522;-82
2023/09/15 09:43:51;;;;;;;7.80;2.00;;;26.60;84.80;;;;;;7300633;19;20203;-83
2023/09/15 09:46:21;;;;;;;7.57;2.00;;;26.60;85.70;;;;;;7300507;19;20185;-82
2023/09/15 09:48:51;;;;;;;6.70;2.03;;;27.60;85.30;;;;;;7290466;19;20562;-81
2023/09/15 09:51:18;;;;;;;4.43;1.50;;;29.90;80.80;;;;;;7301186;19;20185;-82
2023/09/15 09:53:44;;;;;;;6.75;1.98;;;31.30;74.00;;;;;;7288198;19;20189;-82
2023/09/15 09:56:12;;;;;;;7.10;2.05;;;31.00;73.20;;;;;;7292169;19;20208;-81
2023/09/15 09:58:38;;;;;;;3.72;1.60;;;30.80;71.70;;;;;;7303013;19;20192;-83
2023/09/15 10:01:06;;;;;;;6.97;2.00;;;32.60;71.10;;;;;;7295633;19;20260;-83
2023/09/15 10:03:35;;;;;;;5.80;1.95;;;33.40;70.30;;;;;;7317783;19;20201;-83
2023/09/15 10:06:04;;;;;;;4.53;1.90;;;33.90;69.10;;;;;;7316917;19;20213;-82
2023/09/15 10:08:31;;;;;;;6.25;1.85;;;35.20;66.00;;;;;;7316607;19;20203;-84
2023/09/15 10:11:05;;;;;;;5.20;1.90;;;35.90;65.10;;;;;;7284918;19;20202;-81
2023/09/15 10:13:33;;;;;;;6.07;1.90;;;35.50;62.00;;;;;;7299272;19;20192;-83
2023/09/15 10:16:01;;;;;;;5.22;1.70;;;35.20;62.90;;;;;;7297293;19;20233;-84
2023/09/15 10:18:32;;;;;;;7.55;2.10;;;35.20;61.90;;;;;;7301469;19;20243;-83
2023/09/15 10:21:00;;;;;;;4.47;2.00;;;35.30;62.30;;;;;;7298879;19;20189;-81
2023/09/15 10:23:30;;;;;;;4.78;1.60;;;36.60;62.10;;;;;;7297946;19;20233;-84
2023/09/15 10:26:06;;;;;;;3.35;1.63;;;36.80;59.30;;;;;;7299769;19;20222;-82
2023/09/15 10:28:33;;;;;;;5.93;1.83;;;38.00;58.70;;;;;;7287599;19;20209;-82
2023/09/15 10:31:05;;;;;;;7.25;2.00;;;38.80;58.10;;;;;;7320656;19;20189;-81
2023/09/15 10:33:33;;;;;;;1.90;1.25;;;38.80;57.10;;;;;;7303147;19;20189;-83
2023/09/15 10:36:04;;;;;;;4.45;2.05;;;38.00;56.10;;;;;;7301827;19;20778;-83
2023/09/15 10:38:35;;;;;;;4.50;1.70;;;36.40;57.80;;;;;;7303101;19;20188;-84
2023/09/15 10:41:06;;;;;;;4.68;1.70;;;36.10;58.40;;;;;;7301214;19;20578;-85
2023/09/15 10:43:32;;;;;;;3.33;1.63;;;36.20;59.40;;;;;;7291265;19;20264;-82
2023/09/15 10:46:03;;;;;;;5.65;1.75;;;36.30;59.50;;;;;;7312023;19;20197;-80
2023/09/15 10:48:46;;;;;;;6.18;1.75;;;36.10;59.00;;;;;;7298237;19;20200;-82
2023/09/15 10:51:18;;;;;;;4.28;1.48;;;36.10;58.40;;;;;;7191047;19;2004490;-81
2023/09/15 10:54:00;;;;;;;4.68;2.20;;;36.60;58.50;;;;;;7292894;19;20196;-80
2023/09/15 10:56:27;;;;;;;4.00;1.75;;;36.30;57.50;;;;;;7298337;19;20197;-81
2023/09/15 10:58:54;;;;;;;4.75;1.80;;;34.90;57.90;;;;;;7302365;19;20240;-81
2023/09/15 11:01:21;;;;;;;3.08;1.70;;;35.10;58.30;;;;;;7246596;19;20275;-84
2023/09/15 11:03:48;;;;;;;2.80;1.67;;;35.70;58.30;;;;;;7300908;19;20656;-84
2023/09/15 11:06:18;;;;;;;4.10;1.67;;;35.30;58.70;;;;;;7297785;19;20189;-80
2023/09/15 11:08:44;;;;;;;5.25;1.60;;;36.40;58.20;;;;;;7300887;19;20180;-84
2023/09/15 11:11:11;;;;;;;3.15;1.58;;;36.80;58.50;;;;;;7298731;19;20211;-84
2023/09/15 11:13:38;;;;;;;7.55;1.90;;;36.60;57.70;;;;;;7302258;19;20199;-81
2023/09/15 11:16:06;;;;;;;5.07;1.73;;;36.90;58.50;;;;;;7302508;19;20247;-83
2023/09/15 11:18:39;;;;;;;4.35;1.85;;;36.80;58.00;;;;;;7321077;19;20232;-82
2023/09/15 11:21:23;;;;;;;4.03;2.13;;;35.60;57.00;;;;;;7195783;19;2004816;-83
2023/09/15 11:23:50;;;;;;;4.55;1.85;;;35.10;58.90;;;;;;7295190;19;20185;-83
2023/09/15 11:26:20;;;;;;;4.43;1.77;;;35.80;58.10;;;;;;7297920;19;20260;-82
2023/09/15 11:28:47;;;;;;;6.50;2.10;;;36.20;57.80;;;;;;7285301;19;20215;-82
2023/09/15 11:31:14;;;;;;;4.60;1.80;;;36.60;57.70;;;;;;7299063;19;20210;-83
2023/09/15 11:33:46;;;;;;;4.50;2.25;;;37.00;56.20;;;;;;7268195;19;20285;-81
2023/09/15 11:36:16;;;;;;;5.93;2.15;;;37.70;56.30;;;;;;7298918;19;20188;-79
2023/09/15 11:38:42;;;;;;;4.35;1.98;;;36.90;55.30;;;;;;7297326;19;21262;-81
2023/09/15 11:41:11;;;;;;;5.20;1.90;;;36.90;56.00;;;;;;7297598;19;20199;-82
2023/09/15 11:43:42;;;;;;;5.40;1.77;;;37.70;57.50;;;;;;7298831;19;20547;-83
2023/09/15 11:46:10;;;;;;;4.15;1.80;;;38.20;55.50;;;;;;7292991;19;20193;-84
2023/09/15 11:48:38;;;;;;;6.25;1.88;;;38.10;54.50;;;;;;7285752;19;20181;-84
2023/09/15 11:51:09;;;;;;;3.92;2.00;;;37.30;54.90;;;;;;7287866;19;20211;-84
2023/09/15 11:53:38;;;;;;;3.65;1.77;;;36.90;55.50;;;;;;7285161;19;20270;-84
2023/09/15 11:56:05;;;;;;;5.03;1.80;;;36.20;56.20;;;;;;7285161;19;20180;-81
2023/09/15 11:58:32;;;;;;;3.45;1.98;;;35.20;57.60;;;;;;7304872;19;20911;-81
2023/09/15 12:01:04;;;;;;;5.10;1.98;;;34.50;56.40;;;;;;7290392;19;20188;-85
2023/09/15 12:03:31;;;;;;;5.25;1.80;;;34.80;56.90;;;;;;7284283;19;20184;-81
2023/09/15 12:06:00;;;;;;;4.43;1.90;;;35.30;57.60;;;;;;7287451;19;20185;-81
2023/09/15 12:08:28;;;;;;;5.45;1.98;;;35.00;57.00;;;;;;7291252;19;20184;-81
2023/09/15 12:10:55;;;;;;;4.93;2.00;;;35.60;57.50;;;;;;7288100;19;20189;-81
2023/09/15 12:13:21;;;;;;;5.18;1.90;;;34.50;58.20;;;;;;7286098;19;20278;-81
2023/09/15 12:15:48;;;;;;;5.63;1.95;;;34.40;58.80;;;;;;7288139;19;20200;-81
2023/09/15 12:18:14;;;;;;;3.88;1.80;;;34.10;58.30;;;;;;7288066;19;20184;-81
2023/09/15 12:20:40;;;;;;;5.05;1.52;;;34.00;58.90;;;;;;7290114;19;20200;-80
2023/09/15 12:23:13;;;;;;;4.68;1.70;;;34.00;60.50;;;;;;7287237;19;20185;-81
2023/09/15 12:25:39;;;;;;;5.82;1.80;;;34.50;60.90;;;;;;7286986;19;20192;-85
2023/09/15 12:28:06;;;;;;;3.80;1.58;;;34.60;58.30;;;;;;7289009;19;20660;-81
2023/09/15 12:30:34;;;;;;;3.85;1.88;;;34.20;58.10;;;;;;7298578;19;20193;-81
2023/09/15 12:33:04;;;;;;;3.70;1.60;;;34.10;59.40;;;;;;7306049;19;20260;-81
2023/09/15 12:35:39;;;;;;;4.65;2.00;;;34.30;59.90;;;;;;7284373;19;20191;-81
2023/09/15 12:38:05;;;;;;;4.57;1.67;;;33.70;58.80;;;;;;7262360;19;20246;-81
2023/09/15 12:40:32;;;;;;;6.20;2.00;;;33.40;60.00;;;;;;7305305;19;20189;-81
2023/09/15 12:42:58;;;;;;;4.25;1.75;;;33.10;59.70;;;;;;7284542;19;20224;-81
2023/09/15 12:45:26;;;;;;;4.90;2.08;;;32.40;61.40;;;;;;7283336;19;20659;-81
2023/09/15 12:47:51;;;;;;;4.20;1.70;;;32.30;61.20;;;;;;7275242;19;20189;-80
2023/09/15 12:50:17;;;;;;;4.00;1.75;;;32.20;61.40;;;;;;7284128;19;20747;-81